Time;durP1;ratioP1;P1;durP2;ratioP2;P2;SDS_P1;SDS_P2;PMS_P1;PMS_P2;Temp;Humidity;BMP_temperature;BMP_pressure;BME280_temperature;BME280_humidity;BME280_pressure;Samples;Min_cycle;Max_cycle;Signal;HPM_P1;HPM_P2
2022/04/19 00:00:05;;;;;;;10.80;8.75;;;;;;;9.73;54.27;101398.25;5073121;28;20059;-77
2022/04/19 00:02:31;;;;;;;11.35;8.05;;;;;;;9.70;54.54;101396.63;5072944;28;20078;-78
2022/04/19 00:04:58;;;;;;;10.35;8.43;;;;;;;9.61;54.99;101398.06;5073076;28;20117;-77
2022/04/19 00:07:24;;;;;;;12.35;8.48;;;;;;;9.60;54.49;101388.41;5073690;28;20036;-77
2022/04/19 00:09:49;;;;;;;11.48;8.18;;;;;;;9.57;54.74;101390.41;5072997;28;20040;-78
2022/04/19 00:12:14;;;;;;;10.03;8.60;;;;;;;9.53;54.91;101388.91;5073693;28;20051;-78
2022/04/19 00:14:40;;;;;;;9.73;8.00;;;;;;;9.49;55.27;101398.00;5073023;28;20283;-78
2022/04/19 00:17:05;;;;;;;10.40;8.18;;;;;;;9.44;55.31;101388.53;5074181;28;20032;-78
2022/04/19 00:19:31;;;;;;;11.35;9.13;;;;;;;9.43;55.41;101384.19;5077425;28;20041;-78
2022/04/19 00:21:56;;;;;;;12.05;8.32;;;;;;;9.37;55.25;101384.56;5077229;28;20069;-78
2022/04/19 00:24:21;;;;;;;10.97;8.67;;;;;;;9.36;55.62;101382.00;5077587;28;20389;-78
2022/04/19 00:26:47;;;;;;;11.48;9.38;;;;;;;9.28;55.65;101384.31;5076731;28;20291;-79
2022/04/19 00:29:12;;;;;;;12.82;8.52;;;;;;;9.17;56.41;101380.50;5077370;28;20111;-78
2022/04/19 00:31:37;;;;;;;10.73;8.93;;;;;;;9.15;56.48;101385.06;5076915;28;20043;-78
2022/04/19 00:34:02;;;;;;;10.47;8.50;;;;;;;9.13;56.17;101368.41;5076949;28;20025;-78
2022/04/19 00:36:28;;;;;;;9.48;8.43;;;;;;;9.14;56.27;101379.84;5076992;28;20290;-78
2022/04/19 00:38:54;;;;;;;13.85;8.20;;;;;;;9.10;56.67;101376.53;5076980;28;20041;-78
2022/04/19 00:41:19;;;;;;;12.68;8.48;;;;;;;9.05;56.64;101376.81;5076659;28;20029;-79
2022/04/19 00:43:44;;;;;;;10.98;7.88;;;;;;;9.02;57.16;101378.81;5077054;28;20048;-79
2022/04/19 00:46:10;;;;;;;13.90;8.25;;;;;;;9.00;57.00;101375.41;5076527;28;20036;-77
2022/04/19 00:48:35;;;;;;;11.82;8.63;;;;;;;8.97;57.12;101380.88;5083022;28;20621;-78
2022/04/19 00:51:01;;;;;;;9.75;8.60;;;;;;;8.91;58.02;101381.25;5095590;28;20051;-78
2022/04/19 00:53:27;;;;;;;9.27;8.30;;;;;;;8.83;58.25;101382.59;5094309;28;20043;-78
2022/04/19 00:55:53;;;;;;;10.70;8.25;;;;;;;8.74;58.29;101377.84;5094558;28;20032;-79
2022/04/19 00:58:18;;;;;;;9.60;8.60;;;;;;;8.74;57.85;101383.13;5087594;28;20036;-79
2022/04/19 01:00:43;;;;;;;9.18;7.80;;;;;;;8.68;58.35;101378.22;5093411;28;20032;-79
2022/04/19 01:03:09;;;;;;;9.77;8.18;;;;;;;8.66;59.01;101377.44;5074057;28;20071;-79
2022/04/19 01:05:35;;;;;;;9.80;8.27;;;;;;;8.61;59.12;101382.16;5073839;28;20675;-79
2022/04/19 01:08:00;;;;;;;11.68;7.90;;;;;;;8.55;59.25;101374.59;5075767;28;20415;-78
2022/04/19 01:10:26;;;;;;;9.73;8.27;;;;;;;8.51;59.31;101371.28;5076018;28;20040;-78
2022/04/19 01:15:36;;;;;;;14.73;8.55;;;;;;;8.44;60.35;101375.22;5076213;28;20055;-78
2022/04/19 01:18:02;;;;;;;10.73;8.15;;;;;;;8.40;60.47;101371.88;5075295;28;20383;-78
2022/04/19 01:20:28;;;;;;;10.63;8.73;;;;;;;8.36;61.13;101373.03;5095510;28;20094;-77
2022/04/19 01:22:54;;;;;;;8.73;7.75;;;;;;;8.34;61.27;101365.16;5096131;28;20440;-78
2022/04/19 01:25:19;;;;;;;9.60;7.97;;;;;;;8.34;61.06;101367.81;5095984;28;20032;-78
2022/04/19 01:27:46;;;;;;;10.68;7.97;;;;;;;8.33;61.18;101368.75;5095626;28;20395;-78
2022/04/19 01:30:11;;;;;;;11.68;8.70;;;;;;;8.28;61.35;101362.03;5076179;28;20047;-78
2022/04/19 01:32:37;;;;;;;10.98;8.35;;;;;;;8.29;61.20;101361.06;5075588;28;20041;-78
2022/04/19 01:35:10;;;;;;;11.68;8.75;;;;;;;8.28;60.91;101369.97;5075116;28;20024;-77
2022/04/19 01:37:38;;;;;;;10.35;8.82;;;;;;;8.28;60.59;101364.66;5075645;28;20037;-78
2022/04/19 01:40:16;;;;;;;13.77;8.90;;;;;;;8.27;60.99;101365.59;5075592;28;20087;-78
2022/04/19 01:42:45;;;;;;;11.87;8.50;;;;;;;8.25;60.73;101370.16;5075341;28;20040;-78
2022/04/19 01:45:10;;;;;;;11.07;9.37;;;;;;;8.19;61.24;101355.47;5075666;28;20267;-78
2022/04/19 01:47:39;;;;;;;10.18;9.18;;;;;;;8.21;61.02;101361.53;5075370;28;20474;-78
2022/04/19 01:50:09;;;;;;;12.23;9.50;;;;;;;8.14;61.14;101360.16;5075491;28;20035;-77
2022/04/19 01:52:36;;;;;;;10.50;9.27;;;;;;;8.13;61.10;101361.13;5075221;28;20039;-78
2022/04/19 01:55:04;;;;;;;14.57;9.60;;;;;;;8.10;61.50;101364.78;5075092;28;20480;-78
2022/04/19 01:57:29;;;;;;;14.25;9.43;;;;;;;8.09;61.59;101363.09;5075535;28;20037;-78
2022/04/19 01:59:54;;;;;;;10.75;8.75;;;;;;;7.99;62.03;101350.47;5075078;28;20475;-78
2022/04/19 02:02:20;;;;;;;11.27;8.80;;;;;;;8.04;61.58;101365.13;5075074;28;20364;-78
2022/04/19 02:04:45;;;;;;;10.73;8.30;;;;;;;7.99;61.29;101358.41;5074954;28;20041;-78
2022/04/19 02:07:11;;;;;;;9.77;8.77;;;;;;;7.95;61.81;101357.75;5075089;28;20270;-77
2022/04/19 02:09:36;;;;;;;12.43;9.52;;;;;;;7.94;61.75;101359.53;5074759;28;20318;-78
2022/04/19 02:12:03;;;;;;;12.75;9.18;;;;;;;7.91;61.93;101361.50;5074787;28;20075;-78
2022/04/19 02:14:29;;;;;;;10.25;9.23;;;;;;;7.87;62.36;101363.47;5074919;28;20036;-78
2022/04/19 02:16:55;;;;;;;14.77;10.15;;;;;;;7.82;62.33;101352.28;5074800;28;20552;-78
2022/04/19 02:19:20;;;;;;;10.02;9.00;;;;;;;7.74;62.25;101349.22;5075219;28;20041;-78
2022/04/19 02:21:46;;;;;;;11.70;9.70;;;;;;;7.71;62.43;101339.69;5074445;28;20065;-78
2022/04/19 02:24:11;;;;;;;12.18;9.80;;;;;;;7.73;61.83;101355.47;5074577;28;20047;-78
2022/04/19 02:26:36;;;;;;;14.37;10.30;;;;;;;7.72;62.34;101351.13;5074536;28;20037;-77
2022/04/19 02:29:02;;;;;;;11.98;10.52;;;;;;;7.71;61.83;101352.03;5074609;28;20295;-77
2022/04/19 02:31:27;;;;;;;16.55;10.40;;;;;;;7.66;62.46;101351.44;5074506;28;20105;-78
2022/04/19 02:33:53;;;;;;;12.73;10.00;;;;;;;7.64;62.12;101340.97;5074526;28;20396;-78
2022/04/19 02:36:19;;;;;;;14.95;10.75;;;;;;;7.61;62.46;101346.44;5074514;28;20118;-78
2022/04/19 02:38:44;;;;;;;14.43;10.38;;;;;;;7.55;62.78;101344.97;5074237;28;20032;-78
2022/04/19 02:41:09;;;;;;;16.58;11.90;;;;;;;7.53;63.03;101352.16;5073676;28;20463;-78
2022/04/19 02:43:34;;;;;;;12.43;10.77;;;;;;;7.47;63.33;101341.91;5075847;28;20071;-78
2022/04/19 02:46:00;;;;;;;14.07;10.75;;;;;;;7.49;63.44;101347.13;5080729;28;20024;-78
2022/04/19 02:48:25;;;;;;;15.55;11.00;;;;;;;7.41;63.26;101344.88;5083303;28;20044;-78
2022/04/19 02:50:50;;;;;;;13.18;10.73;;;;;;;7.37;63.63;101340.72;5074917;28;20036;-78
2022/04/19 02:53:15;;;;;;;14.07;10.63;;;;;;;7.35;63.46;101340.81;5074117;28;20080;-78
2022/04/19 02:55:41;;;;;;;12.00;10.80;;;;;;;7.31;63.86;101343.69;5074128;28;20032;-78
2022/04/19 02:58:07;;;;;;;11.18;10.07;;;;;;;7.28;64.33;101347.38;5074202;28;20043;-78
2022/04/19 03:00:32;;;;;;;13.55;11.10;;;;;;;7.18;64.59;101333.81;5073811;28;20476;-78
2022/04/19 03:02:58;;;;;;;12.35;10.68;;;;;;;7.21;64.54;101338.06;5073835;28;20048;-78
2022/04/19 03:05:23;;;;;;;12.35;10.70;;;;;;;7.18;64.36;101335.59;5073762;28;20497;-78
2022/04/19 03:07:48;;;;;;;16.75;11.38;;;;;;;7.12;64.26;101334.13;5073798;28;20029;-78
2022/04/19 03:10:18;;;;;;;13.07;10.00;;;;;;;7.12;64.47;101331.47;5073635;28;20029;-77
2022/04/19 03:12:44;;;;;;;12.95;10.82;;;;;;;7.09;64.61;101334.28;5073714;28;20078;-78
2022/04/19 03:15:12;;;;;;;14.38;11.30;;;;;;;7.07;65.00;101337.97;5073763;28;20434;-78
2022/04/19 03:17:40;;;;;;;18.83;12.30;;;;;;;7.04;65.16;101338.97;5073602;28;20045;-77
2022/04/19 03:20:08;;;;;;;14.85;11.18;;;;;;;6.97;65.22;101337.59;5055643;28;20033;-78
2022/04/19 03:28:06;;;;;;;15.30;10.95;;;;;;;6.91;65.73;101340.56;5073901;28;20567;-78
2022/04/19 03:30:31;;;;;;;15.27;11.98;;;;;;;6.88;65.83;101338.09;5055584;28;20139;-78
2022/04/19 03:32:56;;;;;;;16.58;11.85;;;;;;;6.82;65.72;101345.41;5073353;28;20075;-78
2022/04/19 03:35:22;;;;;;;16.25;11.43;;;;;;;6.80;65.97;101343.78;5073408;28;20472;-80
2022/04/19 03:37:47;;;;;;;14.05;12.13;;;;;;;6.74;66.25;101337.03;5073852;28;20059;-78
2022/04/19 03:40:14;;;;;;;17.25;12.27;;;;;;;6.74;66.11;101338.81;5073526;28;20032;-78
2022/04/19 03:42:40;;;;;;;15.55;11.82;;;;;;;6.70;65.95;101343.41;5073604;28;20527;-78
2022/04/19 03:45:06;;;;;;;15.75;11.73;;;;;;;6.70;66.00;101342.56;5073341;28;20036;-78
2022/04/19 03:47:34;;;;;;;16.52;11.27;;;;;;;6.67;66.16;101330.38;5073113;28;20036;-78
2022/04/19 03:50:00;;;;;;;15.43;11.63;;;;;;;6.66;66.11;101331.28;5082825;28;20075;-78
2022/04/19 03:52:25;;;;;;;17.67;12.00;;;;;;;6.62;66.52;101333.25;5093436;28;20063;-78
2022/04/19 03:54:51;;;;;;;13.70;10.93;;;;;;;6.60;66.10;101332.47;5078645;28;20128;-78
2022/04/19 03:57:18;;;;;;;17.10;11.27;;;;;;;6.61;66.25;101338.59;5073142;28;20077;-78
2022/04/19 03:59:44;;;;;;;17.10;11.63;;;;;;;6.59;66.21;101340.47;5087157;28;20036;-78
2022/04/19 04:02:10;;;;;;;13.35;11.80;;;;;;;6.51;66.56;101335.59;5093198;28;20088;-78
2022/04/19 04:04:36;;;;;;;16.08;11.80;;;;;;;6.52;67.00;101336.47;5093579;28;20040;-78
2022/04/19 04:07:05;;;;;;;14.30;11.95;;;;;;;6.45;66.79;101331.47;5086466;28;20060;-78
2022/04/19 04:09:32;;;;;;;14.20;11.88;;;;;;;6.42;66.95;101338.72;5071808;28;20457;-78
2022/04/19 04:12:12;;;;;;;16.98;13.18;;;;;;;6.40;66.86;101344.06;5073237;28;20395;-78
2022/04/19 04:14:43;;;;;;;14.85;12.52;;;;;;;6.35;67.35;101340.81;5073286;28;20083;-78
2022/04/19 04:17:08;;;;;;;15.68;12.73;;;;;;;6.37;66.92;101335.47;5073129;28;20024;-78
2022/04/19 04:19:33;;;;;;;16.58;13.57;;;;;;;6.37;66.84;101333.66;5073052;28;20126;-78
2022/04/19 04:21:58;;;;;;;16.67;12.02;;;;;;;6.38;66.88;101343.28;5072942;28;20056;-78
2022/04/19 04:24:24;;;;;;;17.13;13.00;;;;;;;6.34;66.96;101340.88;5072903;28;20510;-78
2022/04/19 04:26:49;;;;;;;17.23;12.63;;;;;;;6.29;67.52;101339.34;5072848;28;20615;-78
2022/04/19 04:29:14;;;;;;;18.73;13.85;;;;;;;6.29;67.40;101349.03;5072398;28;20106;-78
2022/04/19 04:31:40;;;;;;;16.20;12.45;;;;;;;6.23;67.68;101349.34;5072429;28;20460;-78
2022/04/19 04:34:06;;;;;;;21.95;13.52;;;;;;;6.22;67.58;101345.84;5072936;28;20151;-79
2022/04/19 04:36:32;;;;;;;16.58;12.65;;;;;;;6.19;67.77;101346.00;5083506;28;20032;-79
2022/04/19 04:38:57;;;;;;;17.25;12.50;;;;;;;6.18;67.05;101348.69;5093947;28;20039;-78
2022/04/19 04:41:22;;;;;;;16.42;12.70;;;;;;;6.16;67.62;101348.81;5093197;28;20474;-79
2022/04/19 04:43:47;;;;;;;18.10;12.90;;;;;;;6.15;68.00;101346.25;5093843;28;20036;-78
2022/04/19 04:51:40;;;;;;;17.23;13.15;;;;;;;6.07;68.24;101343.97;5092715;28;20039;-78
2022/04/19 04:54:06;;;;;;;17.02;13.38;;;;;;;6.17;67.32;101360.22;5092870;28;20036;-79
2022/04/19 04:56:31;;;;;;;17.20;12.85;;;;;;;6.16;67.61;101354.09;5092560;28;20032;-76
2022/04/19 04:58:56;;;;;;;16.70;12.57;;;;;;;6.18;67.21;101346.94;5093559;28;20032;-76
2022/04/19 05:01:22;;;;;;;14.88;12.35;;;;;;;6.18;67.54;101351.34;5091978;28;20036;-75
2022/04/19 05:03:48;;;;;;;22.38;13.10;;;;;;;6.21;67.54;101346.78;5095480;28;20090;-75
2022/04/19 05:06:13;;;;;;;16.58;13.13;;;;;;;6.20;67.52;101349.50;5097103;28;20527;-75
2022/04/19 05:08:38;;;;;;;21.52;12.77;;;;;;;6.23;67.28;101358.13;5087064;28;20041;-75
2022/04/19 05:11:04;;;;;;;18.38;13.02;;;;;;;6.24;66.75;101353.69;5058715;28;20037;-76
2022/04/19 05:13:29;;;;;;;17.88;13.13;;;;;;;6.26;66.93;101350.06;5076027;28;20403;-77
2022/04/19 05:15:55;;;;;;;19.92;12.98;;;;;;;6.29;67.23;101359.56;5075608;28;20036;-77
2022/04/19 05:18:20;;;;;;;17.65;13.73;;;;;;;6.25;67.13;101350.97;5075972;28;20032;-76
2022/04/19 05:20:45;;;;;;;19.45;13.68;;;;;;;6.32;66.46;101359.44;5077106;28;20032;-76
2022/04/19 05:23:11;;;;;;;18.92;13.70;;;;;;;6.37;65.79;101369.75;5083406;28;20062;-76
2022/04/19 05:25:36;;;;;;;22.15;13.85;;;;;;;6.43;65.11;101365.03;5096646;28;20046;-78
2022/04/19 05:28:01;;;;;;;25.75;14.32;;;;;;;6.49;64.76;101361.19;5096502;28;20036;-76
2022/04/19 05:30:27;;;;;;;22.25;14.63;;;;;;;6.59;64.39;101367.72;5096212;28;20036;-77
2022/04/19 05:32:52;;;;;;;17.40;13.77;;;;;;;6.63;63.76;101360.50;5095593;28;20032;-77
2022/04/19 05:35:18;;;;;;;18.85;14.50;;;;;;;6.72;63.54;101357.38;5096094;28;20032;-77
2022/04/19 05:37:43;;;;;;;18.05;13.45;;;;;;;6.80;63.27;101364.91;5096439;28;20097;-76
2022/04/19 05:40:09;;;;;;;18.83;13.73;;;;;;;6.89;62.68;101360.91;5096398;28;20032;-76
2022/04/19 05:42:34;;;;;;;18.33;14.00;;;;;;;6.96;62.53;101354.38;5095799;28;20549;-76
2022/04/19 05:44:59;;;;;;;19.10;14.50;;;;;;;7.03;62.62;101356.63;5085244;28;20054;-77
2022/04/19 05:47:25;;;;;;;22.10;14.18;;;;;;;7.10;62.32;101357.13;5079719;28;20407;-77
2022/04/19 05:49:51;;;;;;;22.38;14.25;;;;;;;7.19;61.44;101359.31;5076184;28;20162;-77
2022/04/19 05:52:16;;;;;;;21.42;15.13;;;;;;;7.30;61.52;101369.28;5088961;28;20077;-77
2022/04/19 05:54:42;;;;;;;21.38;14.45;;;;;;;7.38;61.06;101368.88;5095386;28;20121;-77
2022/04/19 05:57:09;;;;;;;18.20;13.95;;;;;;;7.41;60.89;101366.91;5079103;28;20036;-77
2022/04/19 05:59:34;;;;;;;19.08;13.93;;;;;;;7.55;60.33;101368.78;5097318;28;20058;-78
2022/04/19 06:04:52;;;;;;;18.80;14.43;;;;;;;7.72;60.19;101369.63;5095471;28;20066;-77
2022/04/19 06:07:21;;;;;;;19.02;14.52;;;;;;;7.83;59.46;101371.66;5095987;28;20040;-77
2022/04/19 06:09:47;;;;;;;20.10;15.00;;;;;;;7.89;59.26;101374.81;5095632;28;20433;-78
2022/04/19 06:12:12;;;;;;;17.95;14.13;;;;;;;8.00;59.19;101376.84;5094803;28;20040;-78
2022/04/19 06:14:38;;;;;;;20.60;14.57;;;;;;;8.08;58.97;101377.25;5094066;28;20039;-78
2022/04/19 06:17:04;;;;;;;18.75;14.10;;;;;;;8.17;58.60;101378.50;5084641;28;20041;-77
2022/04/19 06:19:30;;;;;;;17.63;13.60;;;;;;;8.25;57.99;101373.63;5074899;28;20032;-77
2022/04/19 06:21:56;;;;;;;17.67;13.93;;;;;;;8.40;56.98;101378.97;5074455;28;20433;-78
2022/04/19 06:24:21;;;;;;;19.40;13.60;;;;;;;8.54;56.60;101381.66;5074603;28;20478;-78
2022/04/19 06:26:47;;;;;;;18.50;13.45;;;;;;;8.66;57.60;101385.38;5079510;28;20151;-78
2022/04/19 06:29:12;;;;;;;19.65;12.93;;;;;;;8.75;55.67;101379.53;5083239;28;20402;-78
2022/04/19 06:31:37;;;;;;;16.67;12.85;;;;;;;8.87;55.89;101384.09;5083912;28;20061;-78
2022/04/19 06:34:03;;;;;;;18.25;13.48;;;;;;;8.93;55.05;101377.59;5089038;28;20028;-78
2022/04/19 06:36:28;;;;;;;21.05;13.15;;;;;;;9.09;54.76;101374.81;5084041;28;20033;-78
2022/04/19 06:38:53;;;;;;;17.95;12.77;;;;;;;9.23;54.00;101381.94;5085487;28;20074;-78
2022/04/19 06:41:19;;;;;;;20.15;12.98;;;;;;;9.38;54.05;101374.81;5094075;28;20039;-78
2022/04/19 06:43:45;;;;;;;16.15;12.68;;;;;;;9.47;53.24;101370.72;5082619;28;20170;-78
2022/04/19 06:46:10;;;;;;;17.60;12.55;;;;;;;9.62;52.62;101383.00;5064787;28;20052;-78
2022/04/19 06:48:35;;;;;;;18.88;12.88;;;;;;;9.77;52.96;101374.06;5073812;28;20033;-79
2022/04/19 06:51:01;;;;;;;17.13;12.63;;;;;;;9.94;53.21;101375.63;5073167;28;20032;-80
2022/04/19 06:53:30;;;;;;;19.98;12.70;;;;;;;10.12;51.59;101378.00;5074262;28;20111;-79
2022/04/19 06:55:56;;;;;;;18.00;12.60;;;;;;;10.31;51.25;101383.81;5074214;28;20479;-78
2022/04/19 06:58:21;;;;;;;16.65;12.50;;;;;;;10.52;51.11;101378.03;5074161;28;20094;-78
2022/04/19 07:00:46;;;;;;;19.50;13.40;;;;;;;10.67;51.03;101370.81;5074006;28;20395;-78
2022/04/19 07:03:12;;;;;;;20.15;13.00;;;;;;;10.93;51.50;101379.66;5083979;28;20071;-78
2022/04/19 07:05:37;;;;;;;19.98;12.73;;;;;;;11.18;50.73;101386.75;5093965;28;20043;-78
2022/04/19 07:08:07;;;;;;;20.83;12.80;;;;;;;11.44;50.72;101384.03;5075746;28;20127;-79
2022/04/19 07:10:33;;;;;;;;;;;;;;;11.57;51.32;101382.19;5094726;28;20386;-78
2022/04/19 07:13:00;;;;;;;17.70;12.63;;;;;;;11.96;49.47;101384.78;5093310;28;19912;-79
2022/04/19 07:15:26;;;;;;;18.77;12.05;;;;;;;12.19;48.81;101386.56;5092477;28;20615;-79
2022/04/19 07:17:51;;;;;;;19.98;12.73;;;;;;;12.50;47.96;101386.06;5088943;28;20052;-78
2022/04/19 07:28:34;;;;;;;17.27;12.25;;;;;;;13.55;45.55;101383.25;5093610;28;20089;-79
2022/04/19 07:30:59;;;;;;;18.23;12.52;;;;;;;13.92;45.00;101389.13;5093528;28;20123;-79
2022/04/19 07:33:24;;;;;;;18.90;12.47;;;;;;;14.12;43.54;101389.28;5089945;28;20099;-79
2022/04/19 07:35:51;;;;;;;15.87;12.30;;;;;;;14.29;43.07;101385.22;5093273;28;20282;-79
2022/04/19 07:38:16;;;;;;;17.77;11.32;;;;;;;14.52;42.31;101391.28;5093431;28;20769;-80
2022/04/19 07:40:44;;;;;;;17.67;11.00;;;;;;;14.76;42.52;101393.75;5093163;28;20131;-80
2022/04/19 07:43:09;;;;;;;19.83;11.60;;;;;;;15.00;41.27;101385.44;5093168;28;20074;-80
2022/04/19 07:45:35;;;;;;;17.23;10.90;;;;;;;15.23;39.81;101391.44;5073097;28;20036;-80
2022/04/19 07:48:00;;;;;;;15.32;10.98;;;;;;;15.52;40.17;101385.34;5077053;28;20024;-80
2022/04/19 07:50:25;;;;;;;16.45;10.68;;;;;;;15.64;38.18;101373.56;5093184;28;20478;-80
2022/04/19 07:52:51;;;;;;;17.00;10.30;;;;;;;15.90;37.60;101383.75;5093632;28;20075;-79
2022/04/19 07:55:17;;;;;;;14.40;10.60;;;;;;;16.08;37.37;101383.94;5092842;28;20063;-80
2022/04/19 07:57:42;;;;;;;15.75;10.32;;;;;;;16.31;37.17;101379.13;5088698;28;20818;-79
2022/04/19 08:00:08;;;;;;;12.73;10.00;;;;;;;16.65;37.12;101386.69;5093825;28;20032;-79
2022/04/19 08:02:33;;;;;;;12.85;9.80;;;;;;;16.83;36.29;101395.69;5093353;28;20633;-79
2022/04/19 08:04:59;;;;;;;15.38;9.68;;;;;;;17.07;37.08;101374.75;5093150;28;20395;-80
2022/04/19 08:07:24;;;;;;;15.03;9.80;;;;;;;17.11;34.93;101387.75;5092778;28;20032;-80
2022/04/19 08:09:49;;;;;;;16.80;10.52;;;;;;;17.26;35.42;101380.06;5092759;28;20764;-80
2022/04/19 08:12:14;;;;;;;16.48;9.75;;;;;;;17.44;35.21;101380.09;5092994;28;20485;-79
2022/04/19 08:14:42;;;;;;;13.23;9.67;;;;;;;17.64;34.77;101374.63;5092883;28;20040;-82
2022/04/19 08:17:08;;;;;;;16.83;9.90;;;;;;;17.85;35.15;101391.31;5080651;28;20317;-81
2022/04/19 08:19:33;;;;;;;20.48;9.77;;;;;;;17.98;34.49;101380.22;5092239;28;20471;-82
2022/04/19 08:21:59;;;;;;;17.77;9.68;;;;;;;18.16;33.98;101371.31;5072563;28;20032;-82
2022/04/19 08:24:24;;;;;;;17.00;9.48;;;;;;;18.35;33.76;101367.59;5070455;28;20059;-80
2022/04/19 08:26:49;;;;;;;14.75;9.75;;;;;;;18.53;33.89;101370.25;5092438;28;20559;-80
2022/04/19 08:29:15;;;;;;;16.50;8.98;;;;;;;18.85;32.67;101365.13;5092333;28;20032;-80
2022/04/19 08:31:40;;;;;;;18.08;9.40;;;;;;;18.89;32.40;101359.44;5092949;28;20036;-82
2022/04/19 08:34:05;;;;;;;12.98;8.13;;;;;;;18.99;31.88;101357.47;5076276;28;20376;-79
2022/04/19 08:36:31;;;;;;;11.63;8.32;;;;;;;19.09;31.61;101368.97;5092914;28;20040;-81
2022/04/19 08:38:56;;;;;;;14.30;8.70;;;;;;;19.18;31.27;101354.50;5082161;28;20036;-81
2022/04/19 08:41:22;;;;;;;12.82;8.60;;;;;;;19.45;31.24;101366.09;5076412;28;20097;-79
2022/04/19 08:43:47;;;;;;;15.43;8.68;;;;;;;19.61;31.17;101365.28;5076635;28;20059;-81
2022/04/19 08:46:13;;;;;;;11.77;8.55;;;;;;;19.77;30.41;101362.66;5076609;28;20395;-81
2022/04/19 08:48:40;;;;;;;14.88;8.77;;;;;;;20.03;30.88;101361.66;5076776;28;20483;-82
2022/04/19 08:51:09;;;;;;;11.57;8.20;;;;;;;20.18;29.72;101364.56;5095504;28;20032;-82
2022/04/19 08:59:04;;;;;;;10.63;7.15;;;;;;;20.77;28.15;101363.53;5097259;28;20082;-80
2022/04/19 09:01:30;;;;;;;10.55;7.00;;;;;;;20.79;28.61;101353.41;5097328;28;20032;-81
2022/04/19 09:03:55;;;;;;;8.95;6.53;;;;;;;21.04;27.70;101359.56;5095031;28;20028;-81
2022/04/19 09:06:21;;;;;;;8.05;5.20;;;;;;;21.24;27.64;101363.53;5076289;28;20487;-81
2022/04/19 09:09:09;;;;;;;12.82;5.50;;;;;;;21.23;28.49;101356.47;5076733;28;20068;-82
2022/04/19 09:11:34;;;;;;;7.93;5.55;;;;;;;21.10;27.14;101353.50;5076714;28;20036;-81
2022/04/19 09:14:06;;;;;;;7.32;5.53;;;;;;;20.91;27.47;101353.88;5076153;28;20043;-80
2022/04/19 09:16:32;;;;;;;8.60;5.57;;;;;;;21.09;28.16;101348.25;5076250;28;20032;-80
2022/04/19 09:18:57;;;;;;;10.90;5.95;;;;;;;21.10;27.63;101355.31;5076186;28;20479;-80
2022/04/19 09:21:38;;;;;;;10.48;5.97;;;;;;;21.11;28.03;101348.91;5076086;28;20059;-81
2022/04/19 09:24:19;;;;;;;10.60;5.68;;;;;;;21.00;27.93;101342.03;5075756;28;20178;-80
2022/04/19 09:26:46;;;;;;;7.30;5.47;;;;;;;20.94;27.72;101348.13;5088679;28;20044;-78
2022/04/19 09:29:25;;;;;;;9.75;6.05;;;;;;;21.05;28.34;101350.47;5090842;28;20035;-78
2022/04/19 09:31:58;;;;;;;7.88;6.22;;;;;;;21.13;28.04;101347.72;5077556;28;20047;-78
2022/04/19 09:34:33;;;;;;;10.05;6.43;;;;;;;21.14;27.80;101352.09;5096038;28;20036;-79
2022/04/19 09:37:13;;;;;;;10.88;5.85;;;;;;;21.27;27.90;101343.44;5096175;28;20032;-79
2022/04/19 09:39:39;;;;;;;7.25;4.80;;;;;;;21.06;25.88;101349.44;5096452;28;20390;-80
2022/04/19 09:42:12;;;;;;;7.63;5.40;;;;;;;21.23;26.75;101342.97;5095861;28;20071;-79
2022/04/19 09:44:50;;;;;;;9.55;5.63;;;;;;;21.31;26.96;101338.53;5096633;28;20093;-80
2022/04/19 09:47:17;;;;;;;9.18;6.03;;;;;;;21.48;26.86;101333.91;5095074;28;20039;-80
2022/04/19 09:49:49;;;;;;;8.48;5.40;;;;;;;21.80;25.97;101339.13;5095716;28;20036;-81
2022/04/19 09:52:20;;;;;;;7.07;5.20;;;;;;;21.76;26.38;101347.75;5095838;28;20042;-81
2022/04/19 09:54:59;;;;;;;8.45;4.97;;;;;;;21.72;25.31;101341.88;5077438;28;20509;-81
2022/04/19 09:57:25;;;;;;;8.30;4.65;;;;;;;21.66;25.33;101334.47;5078175;28;20040;-80
2022/04/19 09:59:51;;;;;;;7.45;3.95;;;;;;;21.98;25.29;101333.41;5074937;28;20068;-81
2022/04/19 10:10:32;;;;;;;11.50;4.93;;;;;;;22.41;24.96;101321.25;5091291;28;20142;-80
2022/04/19 10:12:58;;;;;;;10.40;4.97;;;;;;;22.35;26.71;101326.38;5074979;28;20060;-81
2022/04/19 10:15:24;;;;;;;6.28;5.10;;;;;;;22.31;24.78;101319.63;5087447;28;20036;-80
2022/04/19 10:17:49;;;;;;;7.70;5.10;;;;;;;22.37;24.33;101314.53;5094799;28;20038;-79
2022/04/19 10:20:16;;;;;;;8.00;5.00;;;;;;;22.33;24.98;101320.31;5094708;28;20040;-79
2022/04/19 10:22:48;;;;;;;10.80;5.82;;;;;;;22.33;25.18;101319.44;5079159;28;20290;-79
2022/04/19 10:25:14;;;;;;;9.05;5.50;;;;;;;22.42;24.91;101322.94;5094363;28;20097;-81
2022/04/19 10:27:40;;;;;;;10.15;5.13;;;;;;;22.44;25.12;101319.00;5087003;28;20056;-81
2022/04/19 10:30:17;;;;;;;7.45;5.05;;;;;;;22.60;25.50;101325.25;5074535;28;20047;-81
2022/04/19 10:32:43;;;;;;;6.07;4.43;;;;;;;22.53;24.80;101322.47;5077142;28;20043;-81
2022/04/19 10:35:09;;;;;;;8.07;5.63;;;;;;;22.46;24.74;101327.78;5083538;28;20028;-80
2022/04/19 10:37:34;;;;;;;8.50;5.50;;;;;;;22.43;24.53;101322.75;5094383;28;20285;-80
2022/04/19 10:39:59;;;;;;;8.27;5.60;;;;;;;22.66;25.45;101321.81;5094267;28;20036;-80
2022/04/19 10:42:37;;;;;;;8.40;5.13;;;;;;;22.79;25.50;101321.19;5091691;28;20282;-80
2022/04/19 10:45:11;;;;;;;9.60;5.78;;;;;;;22.62;24.83;101310.53;5094344;28;20036;-80
2022/04/19 10:47:57;;;;;;;7.75;5.78;;;;;;;22.74;25.92;101319.03;5071131;28;20120;-80
2022/04/19 10:50:39;;;;;;;7.88;5.53;;;;;;;22.64;25.11;101308.47;5090518;28;20038;-80
2022/04/19 10:53:06;;;;;;;9.18;5.85;;;;;;;22.69;25.74;101303.34;5093768;28;20028;-79
2022/04/19 10:55:33;;;;;;;8.07;5.35;;;;;;;22.83;25.20;101306.22;5080483;28;20093;-79
2022/04/19 10:58:17;;;;;;;7.40;5.15;;;;;;;23.02;25.27;101310.25;5078693;28;20036;-80
2022/04/19 11:00:51;;;;;;;8.50;5.45;;;;;;;22.91;24.58;101300.72;5086295;28;20040;-79
2022/04/19 11:03:17;;;;;;;7.35;5.10;;;;;;;23.22;23.92;101299.69;5093850;28;20036;-78
2022/04/19 11:05:44;;;;;;;6.75;5.20;;;;;;;23.13;24.10;101300.81;5085987;28;20028;-79
2022/04/19 11:08:24;;;;;;;6.00;4.70;;;;;;;23.36;24.40;101296.09;5074432;28;20058;-80
2022/04/19 11:10:51;;;;;;;7.47;4.75;;;;;;;23.46;23.18;101284.94;5079711;28;20033;-81
2022/04/19 11:13:19;;;;;;;10.18;5.70;;;;;;;23.75;24.36;101288.59;5091414;28;20490;-80
2022/04/19 11:16:06;;;;;;;10.00;6.40;;;;;;;23.97;24.65;101281.31;5093961;28;20081;-80
2022/04/19 11:18:39;;;;;;;8.93;6.03;;;;;;;24.17;24.34;101282.28;5093799;28;20036;-81
2022/04/19 11:21:06;;;;;;;8.50;5.43;;;;;;;24.10;23.32;101283.25;5094015;28;20040;-80
2022/04/19 11:23:42;;;;;;;10.10;6.25;;;;;;;24.18;24.17;101280.41;5093581;28;20043;-80
2022/04/19 11:26:08;;;;;;;8.27;5.35;;;;;;;24.39;24.30;101287.66;5093417;28;20048;-80
2022/04/19 11:28:34;;;;;;;7.53;5.68;;;;;;;24.51;22.74;101275.22;5093705;28;20058;-80
2022/04/19 11:31:00;;;;;;;9.77;5.55;;;;;;;24.63;23.33;101277.41;5093691;28;20060;-80
2022/04/19 11:33:28;;;;;;;8.23;5.57;;;;;;;24.68;23.38;101277.63;5093533;28;20047;-80
2022/04/19 11:36:05;;;;;;;14.40;6.45;;;;;;;24.69;22.85;101268.47;5093807;28;20051;-81
2022/04/19 11:38:32;;;;;;;8.88;4.90;;;;;;;24.70;23.02;101267.44;5088084;28;20043;-81
2022/04/19 11:46:46;;;;;;;8.60;5.68;;;;;;;24.85;22.99;101276.28;5084881;28;20506;-81
2022/04/19 11:49:20;;;;;;;9.35;5.45;;;;;;;25.10;22.93;101276.59;5093281;28;20035;-81
2022/04/19 11:51:54;;;;;;;8.90;5.40;;;;;;;24.80;22.25;101276.03;5091098;28;20085;-80
2022/04/19 11:54:31;;;;;;;11.35;5.63;;;;;;;24.70;22.22;101286.44;5093276;28;20032;-80
2022/04/19 11:56:58;;;;;;;10.27;5.70;;;;;;;24.54;22.29;101285.69;5082519;28;20102;-80
2022/04/19 11:59:28;;;;;;;8.73;5.40;;;;;;;24.57;22.44;101281.78;5093212;28;20024;-80
2022/04/19 12:01:54;;;;;;;11.65;5.60;;;;;;;24.65;22.55;101268.03;5082761;28;20036;-80